DW4858 Tyngsboro MA US current weather conditions

sailwx.info

Wind from 015 at 0 knots gusting 4

Air temperature -3.3° C
Dewpoint -5.0° C

Last reported at 2019-Dec-07 08:05 UTC.
Time now 2019-Dec-07 08:42 UTC

Location: N 42°39' W 071°28'.
View on Google Maps.

See reports from other nearby stations

  
Tides and Currents Weather Stations Pressure Air Temp Water Temp Dewpoint Dewpoint Depression Visibility Wind Speed Wind Dir Waves Ship Positions
date/time (UTC)wind fromknots sea level pressurealtimeterstation pressurevisibilityair tempwater tempwave heightnotes
2019-Dec-07 08:05 015 0 gusting 4 -3.3
2019-Dec-07 07:54 357 0 gusting 5 -3.3
2019-Dec-07 07:49 329 0 gusting 5 -2.8
2019-Dec-07 07:44 020 1 gusting 5 -2.8
2019-Dec-07 07:38 345 0 gusting 5 -2.8
2019-Dec-07 07:33 025 0 gusting 3 -2.8
2019-Dec-07 07:30 318 0 gusting 4 -3.3
2019-Dec-07 07:23 334 0 gusting 4 -2.8
2019-Dec-07 07:18 326 0 gusting 3 -2.8
2019-Dec-07 07:13 340 0 gusting 3 -2.8
2019-Dec-07 07:07 290 0 gusting 3 -2.8
2019-Dec-07 07:02 352 0 gusting 3 -3.3
2019-Dec-07 06:57 254 0 gusting 3 -3.3
2019-Dec-07 06:52 318 0 gusting 4 -3.3
2019-Dec-07 06:47 305 -3.3
2019-Dec-07 06:42 268 -3.3
2019-Dec-07 06:37 268 -3.3
2019-Dec-07 06:31 268 -3.3
2019-Dec-07 06:26 268 -3.3
2019-Dec-07 06:21 268 -3.9
2019-Dec-07 06:17 268 -3.9
2019-Dec-07 06:10 268 -3.9
2019-Dec-07 06:06 268 -3.9
2019-Dec-07 06:00 268 -3.9
2019-Dec-07 05:54 268 -3.9
2019-Dec-07 05:50 268 -3.9
2019-Dec-07 05:44 268 -3.9
2019-Dec-07 05:39 268 -3.9
2019-Dec-07 05:33 268 -3.9
2019-Dec-07 05:28 268 -3.9
2019-Dec-07 05:23 268 -3.9
2019-Dec-07 05:18 268 -3.9
2019-Dec-07 05:13 268 -3.9
2019-Dec-07 05:07 268 -3.9
2019-Dec-07 05:02 268 -3.3
2019-Dec-07 05:00 268 -3.9
2019-Dec-07 04:52 268 -3.3
2019-Dec-07 04:47 268 -3.3
2019-Dec-07 04:41 268 -3.3
2019-Dec-07 04:36 268 -3.3
2019-Dec-07 04:31 268 -3.3
2019-Dec-07 04:26 267 -3.3
2019-Dec-07 04:21 267 -3.3
2019-Dec-07 04:17 267 -3.3
2019-Dec-07 04:10 267 0 gusting 2 -3.3
2019-Dec-07 04:05 271 0 gusting 2 -3.3
2019-Dec-07 04:00 263 0 gusting 0 -3.3
2019-Dec-07 03:55 263 -2.8
2019-Dec-07 03:50 263 -2.8
2019-Dec-07 03:46 263 -3.3
2019-Dec-07 03:40 263 -2.8
2019-Dec-07 03:34 263 -2.8
2019-Dec-07 03:29 263 -2.2
2019-Dec-07 03:24 255 -2.2
2019-Dec-07 03:19 254 -2.2
2019-Dec-07 03:14 254 -2.2
2019-Dec-07 03:08 313 0 gusting 2 -2.2
2019-Dec-07 03:03 256 0 gusting 2 -1.7
2019-Dec-07 02:58 330 0 gusting 2 -1.7
2019-Dec-07 02:53 331 0 gusting 2 -1.7
2019-Dec-07 02:48 336 0 gusting 2 -1.7
2019-Dec-07 02:43 339 0 gusting 2 -1.7
2019-Dec-07 02:38 341 0 gusting 2 -1.7
2019-Dec-07 02:33 317 0 gusting 2 -1.7
2019-Dec-07 02:27 319 0 gusting 3 -1.7
2019-Dec-07 02:22 346 0 gusting 3 -1.1
2019-Dec-07 02:17 007 0 gusting 3 -1.1
2019-Dec-07 02:15 007 1 gusting 6 -1.7
2019-Dec-07 02:06 346 0 gusting 6 -1.1
2019-Dec-07 02:01 059 0 gusting 4 -1.1
2019-Dec-07 01:56 339 1 gusting 4 -1.1
2019-Dec-07 01:50 323 1 gusting 4 -1.1
2019-Dec-07 01:45 337 0 gusting 4 -1.1
2019-Dec-07 01:40 340 0 gusting 3 -1.1
2019-Dec-07 01:35 122 0 gusting 2 -1.1
2019-Dec-07 01:30 124 -1.1
2019-Dec-07 01:24 127 -1.1
2019-Dec-07 01:19 127 -0.6
2019-Dec-07 01:14 127 -0.6
2019-Dec-07 01:09 127 -0.6
2019-Dec-07 01:04 127 -0.6
2019-Dec-07 00:58 127 -0.6
2019-Dec-07 00:53 127 -0.6
2019-Dec-07 00:48 127 -0.6
2019-Dec-07 00:43 127 -0.6
2019-Dec-07 00:38 127 -0.6
2019-Dec-07 00:32 127 -0.6
2019-Dec-07 00:30 127 -1.1
2019-Dec-07 00:22 127 -0.6
2019-Dec-07 00:17 127 -0.6
2019-Dec-07 00:11 127 -0.6
2019-Dec-07 00:06 127 -0.6
2019-Dec-07 00:01 127 -1.1
2019-Dec-06 23:55 127 -0.6
2019-Dec-06 23:50 127 -0.6
2019-Dec-06 23:45 127 -0.6
2019-Dec-06 23:40 127 -0.6
2019-Dec-06 23:35 127 -0.6
2019-Dec-06 23:29 127 -0.6
2019-Dec-06 23:24 127 -0.6
2019-Dec-06 23:19 127 -0.6
2019-Dec-06 23:15 127 -1.1
2019-Dec-06 23:09 127 -1.1
2019-Dec-06 23:03 127 -1.1
2019-Dec-06 22:57 127 -1.1
2019-Dec-06 22:52 127 -1.1
2019-Dec-06 22:47 127 -1.1
2019-Dec-06 22:41 127 -1.1
2019-Dec-06 22:36 127 -1.1
2019-Dec-06 22:31 127 -1.1
2019-Dec-06 22:26 127 -1.1
2019-Dec-06 22:20 127 -1.1
2019-Dec-06 22:16 127 -1.7
2019-Dec-06 22:09 127 -1.1
2019-Dec-06 22:04 127 -1.1
2019-Dec-06 22:00 127 -1.7
2019-Dec-06 21:53 127 0 gusting 3 -1.1
2019-Dec-06 21:48 127 0 gusting 3 -1.1
2019-Dec-06 21:43 128 0 gusting 2 -1.1
2019-Dec-06 21:38 128 1 gusting 3 -1.1
2019-Dec-06 21:32 128 1 gusting 6 -1.1
2019-Dec-06 21:27 136 1 gusting 6 -1.1
2019-Dec-06 21:22 139 1 gusting 2 -1.1
2019-Dec-06 21:17 139 1 gusting 3 -1.7
2019-Dec-06 21:12 139 1 gusting 3 -1.1
2019-Dec-06 21:06 139 1 gusting 2 -1.1
2019-Dec-06 21:01 139 0 gusting 2 -1.7
2019-Dec-06 20:55 139 0 gusting 2 -1.1
2019-Dec-06 20:50 139 0 gusting 2 -1.1
2019-Dec-06 20:46 139 0 gusting 2 -1.7
2019-Dec-06 20:40 139 1 gusting 3 -1.1
2019-Dec-06 20:35 139 0 gusting 3 -1.1
2019-Dec-06 20:30 139 0 gusting 3 -1.1
2019-Dec-06 20:25 139 1 gusting 3 -1.1
2019-Dec-06 20:19 139 2 gusting 4 -1.1
2019-Dec-06 20:15 139 2 gusting 4 -1.7
2019-Dec-06 20:09 142 1 gusting 4 -1.1
2019-Dec-06 20:03 142 1 gusting 3 -1.1
2019-Dec-06 19:59 143 1 gusting 3 -1.1
2019-Dec-06 19:53 143 1 gusting 3 -1.1
2019-Dec-06 19:48 143 0 gusting 1 -1.1
2019-Dec-06 19:43 143 0 gusting 2 -1.1
2019-Dec-06 19:38 143 1 gusting 2 -1.1
2019-Dec-06 19:32 143 1 gusting 4 -1.1
2019-Dec-06 19:27 143 2 gusting 6 -1.1
2019-Dec-06 19:22 138 2 gusting 6 -1.1
2019-Dec-06 19:17 151 2 gusting 5 -1.1
2019-Dec-06 19:12 125 1 gusting 5 -1.1
2019-Dec-06 19:07 162 0 gusting 3 -0.6
2019-Dec-06 19:01 162 0 gusting 4 -0.6
2019-Dec-06 18:56 163 1 gusting 5 -0.6
2019-Dec-06 18:50 163 1 gusting 5 -0.6
2019-Dec-06 18:46 173 1 gusting 4 -0.6
2019-Dec-06 18:40 159 1 gusting 4 -0.6
2019-Dec-06 18:35 159 1 gusting 4 -0.6
2019-Dec-06 18:32 220 1 gusting 4 -0.6
2019-Dec-06 18:25 208 2 gusting 6 -0.0
2019-Dec-06 18:15 176 -0.0
2019-Dec-06 18:09 175 2 gusting 6 0.6
2019-Dec-06 18:04 229 2 gusting 6 0.6
2019-Dec-06 17:59 185 2 gusting 6 0.6
2019-Dec-06 17:54 216 1 gusting 4 0.6
2019-Dec-06 17:49 248 1 gusting 4 0.6
2019-Dec-06 17:45 255 1 gusting 4 -0.0
2019-Dec-06 17:38 197 1 gusting 3 0.6
2019-Dec-06 17:33 193 2 gusting 6 0.6
2019-Dec-06 17:28 173 2 gusting 9 0.6
2019-Dec-06 17:23 235 2 gusting 9 0.6
2019-Dec-06 17:18 206 2 gusting 6 0.6
2019-Dec-06 17:12 257 2 gusting 4 0.6
2019-Dec-06 17:07 224 2 gusting 4 -0.0
2019-Dec-06 17:02 250 2 gusting 8 -0.0
2019-Dec-06 16:57 225 2 gusting 8 -0.0
2019-Dec-06 16:52 222 2 gusting 5 -0.0
2019-Dec-06 16:47 198 2 gusting 6 -0.0
2019-Dec-06 16:41 196 2 gusting 6 -0.0
2019-Dec-06 16:36 231 2 gusting 6 -0.0
2019-Dec-06 16:31 244 2 gusting 6 -0.6
2019-Dec-06 16:26 226 1 gusting 6 -0.6
2019-Dec-06 16:20 197 1 gusting 5 -0.6
2019-Dec-06 16:16 250 2 gusting 5 -0.6
2019-Dec-06 16:09 242 2 gusting 6 -0.6
2019-Dec-06 16:04 244 1 gusting 6 -0.6
2019-Dec-06 15:59 199 1 gusting 6 -0.6
2019-Dec-06 15:54 250 1 gusting 7 -0.6
2019-Dec-06 15:48 234 1 gusting 7 -0.6
2019-Dec-06 15:43 238 1 gusting 5 -0.6
2019-Dec-06 15:38 204 1 gusting 5 -1.1
2019-Dec-06 15:33 237 1 gusting 5 -1.1
2019-Dec-06 15:28 250 1 gusting 3 -1.1
2019-Dec-06 15:23 252 1 gusting 3 -1.1
2019-Dec-06 15:17 252 0 gusting 3 -1.1
2019-Dec-06 15:12 244 0 gusting 2 -1.7
2019-Dec-06 15:07 244 0 gusting 2 -1.7
2019-Dec-06 15:02 244 0 gusting 2 -1.7
2019-Dec-06 14:56 244 0 gusting 2 -1.7
2019-Dec-06 14:51 244 0 gusting 2 -1.7
2019-Dec-06 14:46 244 0 gusting 1 -2.2
2019-Dec-06 14:41 244 0 gusting 1 -2.2
2019-Dec-06 14:35 244 0 gusting 1 -2.2
2019-Dec-06 14:31 244 -2.2
2019-Dec-06 14:25 244 -2.2
2019-Dec-06 14:20 244 0 gusting 1 -2.2
2019-Dec-06 14:15 244 0 gusting 3 -2.2
2019-Dec-06 14:09 244 -2.8
2019-Dec-06 14:04 244 -2.8
2019-Dec-06 13:59 244 -2.8
2019-Dec-06 13:54 244 -2.8
2019-Dec-06 13:49 244 -2.8
2019-Dec-06 13:44 244 -3.3
2019-Dec-06 13:38 244 0 gusting 1 -3.3
2019-Dec-06 13:33 244 0 gusting 1 -3.3
2019-Dec-06 13:28 244 0 gusting 2 -3.3
2019-Dec-06 13:22 244 0 gusting 2 -3.9
2019-Dec-06 13:17 244 0 gusting 1 -3.9
2019-Dec-06 13:15 244 -3.9
2019-Dec-06 13:06 244 -3.9
2019-Dec-06 13:01 244 -3.9
2019-Dec-06 12:56 244 -3.9
2019-Dec-06 12:50 244 0 gusting 1 -4.4
2019-Dec-06 12:46 244 -4.4
2019-Dec-06 12:40 244 0 gusting 2 -4.4
2019-Dec-06 12:34 244 0 gusting 5 -4.4
2019-Dec-06 12:29 214 0 gusting 1 -4.4
2019-Dec-06 12:24 214 0 gusting 1 -4.4
2019-Dec-06 12:18 214 1 gusting 2 -5.0
2019-Dec-06 12:13 214 1 gusting 2 -5.0
2019-Dec-06 12:08 214 0 gusting 2 -5.0
2019-Dec-06 12:03 214 0 gusting 1 -5.6
2019-Dec-06 12:00 214 0 gusting 1 -5.6
2019-Dec-06 11:52 214 0 gusting 1 -5.6
2019-Dec-06 11:47 214 0 gusting 1 -5.6
2019-Dec-06 11:42 214 -5.6
2019-Dec-06 11:36 214 -5.6
2019-Dec-06 11:32 214 -5.6
2019-Dec-06 11:26 214 -5.0
2019-Dec-06 11:21 214 -5.0
2019-Dec-06 11:16 214 -5.0
2019-Dec-06 11:10 214 0 gusting 1 -5.0
2019-Dec-06 11:05 214 -5.0
2019-Dec-06 11:01 214 -5.0
2019-Dec-06 10:55 214 0 gusting 2 -5.0
2019-Dec-06 10:50 212 0 gusting 2 -5.0
2019-Dec-06 10:45 215 0 gusting 2 -5.6
2019-Dec-06 10:44 215 0 gusting 2 -5.6
2019-Dec-06 10:39 286 0 gusting 2 -5.6
2019-Dec-06 10:34 286 -5.6
2019-Dec-06 10:29 286 -6.1
2019-Dec-06 10:24 286 -6.1
2019-Dec-06 10:18 286 -5.6
2019-Dec-06 10:14 286 0 gusting 3 -5.6
2019-Dec-06 10:08 286 0 gusting 3 -5.6
2019-Dec-06 10:03 292 -6.1
2019-Dec-06 09:58 292 -5.6
2019-Dec-06 09:53 292 -5.6
2019-Dec-06 09:48 292 -5.6
2019-Dec-06 09:42 292 -5.6
2019-Dec-06 09:37 292 -5.6
2019-Dec-06 09:32 292 0 gusting 1 -5.6
2019-Dec-06 09:27 292 0 gusting 1 -5.6
2019-Dec-06 09:22 292 -5.0
2019-Dec-06 09:17 292 -5.0
2019-Dec-06 09:12 292 0 gusting 0 -5.0
2019-Dec-06 09:06 292 0 gusting 1 -5.0
2019-Dec-06 09:01 292 0 gusting 1 -5.0
2019-Dec-06 08:56 292 0 gusting 1 -5.0
2019-Dec-06 08:51 292 0 gusting 1 -5.0
2019-Dec-06 08:46 292 0 gusting 1 -5.0
2019-Dec-06 08:40 292 -5.0
2019-Dec-06 08:35 292 -5.0
2019-Dec-06 08:31 292 -5.0
2019-Dec-06 08:29 292 0 gusting 1 -5.0
2019-Dec-06 08:24 292 0 gusting 1 -5.0
2019-Dec-06 08:19 292 -5.0
2019-Dec-06 08:14 292 -5.0
2019-Dec-06 08:08 292 0 gusting 1 -5.0
2019-Dec-06 08:03 292 0 gusting 1 -5.0
2019-Dec-06 07:58 292 0 gusting 1 -5.0
2019-Dec-06 07:53 292 -5.0
2019-Dec-06 07:48 292 -5.0
2019-Dec-06 07:43 292 0 gusting 1 -5.0
2019-Dec-06 07:38 292 -5.0
2019-Dec-06 07:32 292 -4.4
2019-Dec-06 07:27 292 -4.4
2019-Dec-06 07:21 292 -4.4
2019-Dec-06 07:16 292 -4.4
2019-Dec-06 07:11 292 -3.9
2019-Dec-06 07:06 292 -3.9
2019-Dec-06 07:01 292 0 gusting 1 -3.9
2019-Dec-06 06:56 292 0 gusting 2 -3.3
2019-Dec-06 06:51 292 0 gusting 6 -3.3
2019-Dec-06 06:46 292 1 gusting 6 -3.9
2019-Dec-06 06:40 196 0 gusting 2 -3.3
2019-Dec-06 06:35 182 0 gusting 4 -3.3
2019-Dec-06 06:30 182 0 gusting 3 -3.3
2019-Dec-06 06:25 262 0 gusting 2 -3.3
2019-Dec-06 06:19 258 1 gusting 3 -3.3
2019-Dec-06 06:14 258 0 gusting 4 -3.3
2019-Dec-06 06:09 344 0 gusting 2 -3.3
2019-Dec-06 06:03 351 0 gusting 3 -3.3
2019-Dec-06 05:58 344 0 gusting 3 -3.3
2019-Dec-06 05:53 246 0 gusting 2 -3.3
2019-Dec-06 05:47 244 0 gusting 3 -3.3
2019-Dec-06 05:42 246 0 gusting 3 -2.8
2019-Dec-06 05:37 024 0 gusting 2 -2.8
2019-Dec-06 05:32 023 0 gusting 4 -2.8
2019-Dec-06 05:26 344 1 gusting 5 -2.8
2019-Dec-06 05:21 248 0 gusting 5 -2.8
2019-Dec-06 05:16 294 0 gusting 3 -2.8
2019-Dec-06 05:11 288 1 gusting 5 -2.8
2019-Dec-06 05:05 282 1 gusting 5 -2.2
2019-Dec-06 05:01 259 0 gusting 4 -2.8
2019-Dec-06 04:55 292 1 gusting 6 -2.2
2019-Dec-06 04:50 021 1 gusting 6 -2.2
2019-Dec-06 04:46 214 1 gusting 6 -2.8
2019-Dec-06 04:39 345 2 gusting 13 -2.2
2019-Dec-06 04:34 013 2 gusting 12 -2.2
2019-Dec-06 04:29 353 2 gusting 12 -2.2
2019-Dec-06 04:24 260 2 gusting 8 -2.2
2019-Dec-06 04:19 259 1 gusting 3 -2.2
2019-Dec-06 04:13 289 1 gusting 6 -2.2
2019-Dec-06 04:08 186 2 gusting 11 -1.7
2019-Dec-06 04:03 176 2 gusting 11 -1.7
2019-Dec-06 03:58 267 1 gusting 7 -1.7
2019-Dec-06 03:53 242 2 gusting 7 -1.7
2019-Dec-06 03:48 256 1 gusting 7 -1.7
2019-Dec-06 03:43 269 1 gusting 7 -1.7
2019-Dec-06 03:38 279 1 gusting 7 -1.7
2019-Dec-06 03:33 318 2 gusting 7 -1.7
2019-Dec-06 03:28 212 2 gusting 7 -1.7
2019-Dec-06 03:22 298 2 gusting 7 -1.7
2019-Dec-06 03:17 244 2 gusting 7 -1.7
2019-Dec-06 03:12 221 2 gusting 10 -1.1
2019-Dec-06 03:07 126 2 gusting 10 -1.1
2019-Dec-06 03:02 242 2 gusting 7 -1.1
2019-Dec-06 02:57 249 2 gusting 7 -1.1
2019-Dec-06 02:52 246 2 gusting 12 -1.1
2019-Dec-06 02:47 247 2 gusting 12 -0.6
2019-Dec-06 02:41 007 2 gusting 7 -0.6
2019-Dec-06 02:37 312 1 gusting 7 -0.6
2019-Dec-06 02:31 309 0 gusting 7 -1.1
2019-Dec-06 02:26 274 1 gusting 5 -0.6
2019-Dec-06 02:21 320 1 gusting 5 -0.6
2019-Dec-06 02:16 245 -1.1
2019-Dec-06 02:11 223 1 gusting 6 -0.6
2019-Dec-06 02:06 292 1 gusting 4 -0.6
2019-Dec-06 02:00 321 1 gusting 4 -0.6
2019-Dec-06 01:56 248 0 gusting 5 -0.6
2019-Dec-06 01:50 258 0 gusting 5 -0.6
2019-Dec-06 01:45 256 0 gusting 3 -0.6
2019-Dec-06 01:40 187 0 gusting 3 -0.6
2019-Dec-06 01:35 296 1 gusting 6 -0.6
2019-Dec-06 01:30 267 1 gusting 6 -0.0
2019-Dec-06 01:20 246 1 gusting 6 -0.0
2019-Dec-06 01:17 274 1 gusting 6 -0.6
2019-Dec-06 01:10 264 1 gusting 6 -0.0
2019-Dec-06 01:05 296 0 gusting 2 -0.0
2019-Dec-06 00:59 296 0 gusting 2 -0.0
2019-Dec-06 00:55 275 0 gusting 3 -0.0
2019-Dec-06 00:49 245 0 gusting 3 -0.0
2019-Dec-06 00:44 262 1 gusting 6 -0.0
2019-Dec-06 00:38 262 1 gusting 6 -0.0
2019-Dec-06 00:33 275 1 gusting 5 -0.0
2019-Dec-06 00:27 290 1 gusting 6 -0.0
2019-Dec-06 00:22 277 1 gusting 6 -0.0
2019-Dec-06 00:17 266 1 gusting 7 -0.0
2019-Dec-06 00:12 236 1 gusting 7 0.6
2019-Dec-06 00:07 211 1 gusting 7 0.6
2019-Dec-06 00:01 248 1 gusting 11 0.6
2019-Dec-05 23:56 271 2 gusting 11 0.6
2019-Dec-05 23:51 215 2 gusting 6 0.6
2019-Dec-05 23:46 242 2 gusting 8 0.6
2019-Dec-05 23:40 275 2 gusting 6 0.6
2019-Dec-05 23:35 307 3 gusting 6 1.1
2019-Dec-05 23:31 273 3 gusting 6 0.6
2019-Dec-05 23:24 186 3 gusting 6 1.1
2019-Dec-05 23:19 273 2 gusting 7 1.1
2019-Dec-05 23:14 296 2 gusting 7 1.1
2019-Dec-05 23:09 279 1 gusting 6 1.1
2019-Dec-05 23:03 200 1 gusting 6 1.1
2019-Dec-05 23:00 179 2 gusting 6 1.1
2019-Dec-05 22:52 242 1 gusting 6 1.7
2019-Dec-05 22:47 262 1 gusting 3 1.7
2019-Dec-05 22:45 253 0 gusting 6 1.1
2019-Dec-05 22:37 197 1 gusting 3 1.7
2019-Dec-05 22:32 253 0 gusting 3 1.7
2019-Dec-05 22:26 253 0 gusting 4 1.7
2019-Dec-05 22:21 255 0 gusting 5 1.7
2019-Dec-05 22:16 177 0 gusting 4 1.7
2019-Dec-05 22:11 260 1 gusting 7 2.2
2019-Dec-05 22:06 268 1 gusting 7 2.2
2019-Dec-05 22:01 288 0 gusting 8 1.7
2019-Dec-05 21:55 277 1 gusting 8 2.2
2019-Dec-05 21:49 217 1 gusting 6 2.2
2019-Dec-05 21:45 210 1 gusting 6 2.2
2019-Dec-05 21:40 283 2 gusting 6 2.2
2019-Dec-05 21:34 287 2 gusting 6 2.2
2019-Dec-05 21:29 196 2 gusting 11 2.2
2019-Dec-05 21:24 253 3 gusting 10 2.2
2019-Dec-05 21:18 197 3 gusting 12 2.2
2019-Dec-05 21:13 314 4 gusting 12 2.2
2019-Dec-05 21:08 259 3 gusting 11 2.8
2019-Dec-05 21:03 292 4 gusting 11 2.8
2019-Dec-05 20:58 240 4 gusting 13 2.8
2019-Dec-05 20:53 245 4 gusting 13 2.8
2019-Dec-05 20:48 037 3 gusting 10 2.8
2019-Dec-05 20:43 002 3 gusting 8 3.3
2019-Dec-05 20:37 267 3 gusting 9 3.3
2019-Dec-05 20:32 194 3 gusting 6 3.3
2019-Dec-05 20:27 223 2 gusting 9 3.9
2019-Dec-05 20:21 265 2 gusting 6 3.9
2019-Dec-05 20:16 279 2 gusting 6 3.9
2019-Dec-05 20:11 277 2 gusting 6 3.9
2019-Dec-05 20:06 290 3 gusting 8 4.4
2019-Dec-05 20:01 021 2 gusting 8 4.4
2019-Dec-05 19:57 288 2 gusting 6 4.4
2019-Dec-05 19:54 032 2 gusting 7 5.0
2019-Dec-05 19:49 007 2 gusting 7 5.0
2019-Dec-05 19:45 290 2 gusting 8 4.4
2019-Dec-05 19:39 244 3 gusting 9 4.4
2019-Dec-05 19:34 026 2 gusting 6 4.4
2019-Dec-05 19:30 044 4 gusting 8 3.9
2019-Dec-05 19:23 225 1 gusting 5 4.4
2019-Dec-05 19:19 186 2 gusting 6 4.4
2019-Dec-05 19:12 285 2 gusting 10 4.4
2019-Dec-05 17:41 288 3 gusting 7 4.4
2019-Dec-05 17:34 236 2 gusting 8 5.0
2019-Dec-05 17:30 215 1 gusting 8 4.4
2019-Dec-05 17:24 248 2 gusting 8 5.0
2019-Dec-05 17:19 220 2 gusting 7 5.0
2019-Dec-05 17:14 238 3 gusting 7 5.6
2019-Dec-05 17:09 021 3 gusting 13 5.6
2019-Dec-05 17:03 269 2 gusting 13 5.0
2019-Dec-05 16:58 249 2 gusting 7 5.0
2019-Dec-05 16:52 236 3 gusting 8 5.0
2019-Dec-05 16:47 254 2 gusting 8 5.0
2019-Dec-05 16:42 318 2 gusting 7 5.0
2019-Dec-05 16:37 252 3 gusting 7 5.0
2019-Dec-05 16:32 276 3 gusting 9 5.6
2019-Dec-05 16:27 192 2 gusting 9 5.6
2019-Dec-05 16:21 269 2 gusting 10 5.0
2019-Dec-05 16:16 288 3 gusting 10 4.4
2019-Dec-05 16:10 243 3 gusting 6 4.4
2019-Dec-05 16:05 240 2 gusting 9 4.4
2019-Dec-05 16:00 252 2 gusting 9 5.0
2019-Dec-05 15:55 238 3 gusting 6 5.0
2019-Dec-05 15:50 279 2 gusting 8 5.0
2019-Dec-05 15:46 231 0 gusting 7 4.4
2019-Dec-05 15:39 182 2 gusting 6 4.4
2019-Dec-05 15:34 255 3 gusting 6 4.4
2019-Dec-05 15:29 314 2 gusting 6 4.4
2019-Dec-05 15:24 296 2 gusting 10 4.4
2019-Dec-05 15:19 252 2 gusting 10 4.4
2019-Dec-05 15:14 244 2 gusting 9 4.4
2019-Dec-05 15:08 224 2 gusting 9 4.4
2019-Dec-05 15:03 279 2 gusting 10 4.4
2019-Dec-05 14:58 291 2 gusting 10 3.9
2019-Dec-05 14:53 234 1 gusting 7 3.9
2019-Dec-05 14:47 257 1 gusting 6 3.9
2019-Dec-05 14:42 308 1 gusting 6 3.3
2019-Dec-05 14:37 223 2 gusting 7 3.3
2019-Dec-05 14:31 233 2 gusting 8 2.8
2019-Dec-05 14:26 272 1 gusting 8 2.8
2019-Dec-05 14:21 239 1 gusting 5 2.2
2019-Dec-05 14:16 230 1 gusting 3 2.2
2019-Dec-05 14:10 227 1 gusting 4 2.2
2019-Dec-05 14:05 230 1 gusting 4 1.7
2019-Dec-05 14:00 234 0 gusting 3 1.7
2019-Dec-05 13:54 234 1 gusting 4 1.7
2019-Dec-05 13:49 215 0 gusting 3 1.7
2019-Dec-05 13:44 215 0 gusting 3 1.1
2019-Dec-05 13:39 223 0 gusting 3 1.1
2019-Dec-05 13:33 218 0 gusting 3 0.6
2019-Dec-05 13:29 002 0 gusting 3 0.6
2019-Dec-05 13:23 002 0 gusting 2 0.6
2019-Dec-05 13:18 002 0 gusting 3 -0.0
2019-Dec-05 13:13 002 1 gusting 2 -0.0
2019-Dec-05 13:07 002 0 gusting 5 -0.0
2019-Dec-05 13:02 002 0 gusting 2 -0.6
2019-Dec-05 12:57 246 0 gusting 2 -0.6
2019-Dec-05 12:52 248 -1.1
2019-Dec-05 12:47 244 -1.1
2019-Dec-05 12:42 236 -1.1
2019-Dec-05 12:37 236 -1.1
2019-Dec-05 12:31 236 -1.7
2019-Dec-05 12:25 236 -1.7
2019-Dec-05 12:20 236 -1.7
2019-Dec-05 12:17 236 -2.2
2019-Dec-05 12:10 236 -1.7
2019-Dec-05 12:04 236 0 gusting 2 -1.7
2019-Dec-05 11:59 236 0 gusting 2 -1.7
2019-Dec-05 11:53 236 0 gusting 2 -1.7
2019-Dec-05 11:48 237 0 gusting 1 -1.7
2019-Dec-05 11:43 237 0 gusting 1 -1.7
2019-Dec-05 11:38 237 -1.7
2019-Dec-05 11:32 237 -1.7
2019-Dec-05 11:27 237 0 gusting 3 -1.7
2019-Dec-05 11:22 237 -1.7
2019-Dec-05 11:17 221 -1.7
2019-Dec-05 11:15 221 -1.7
2019-Dec-05 11:06 221 -1.7
2019-Dec-05 11:01 221 -1.7
2019-Dec-05 10:56 221 -1.7
2019-Dec-05 10:51 221 -1.7
2019-Dec-05 10:46 221 -1.7
2019-Dec-05 10:41 221 -1.7
2019-Dec-05 10:36 221 -1.7
2019-Dec-05 10:31 221 -1.7
2019-Dec-05 10:25 221 -1.7
2019-Dec-05 10:20 221 -1.7
2019-Dec-05 10:15 221 -1.7
2019-Dec-05 10:05 221 0 gusting 2 -1.1
2019-Dec-05 09:55 223 0 gusting 2 -1.1
2019-Dec-05 09:50 223 0 gusting 3 -1.1
2019-Dec-05 09:45 223 0 gusting 3 -1.7
2019-Dec-05 09:39 223 0 gusting 2 -1.1
2019-Dec-05 09:34 223 0 gusting 2 -1.1
2019-Dec-05 09:29 223 1 gusting 3 -1.1
2019-Dec-05 09:24 221 1 gusting 3 -1.1
2019-Dec-05 09:18 220 0 gusting 2 -1.1
2019-Dec-05 09:13 220 0 gusting 2 -1.1
2019-Dec-05 09:07 220 0 gusting 2 -1.1
2019-Dec-05 09:02 220 0 gusting 2 -1.1
2019-Dec-05 08:57 220 1 gusting 2 -0.6
2019-Dec-05 08:52 220 1 gusting 3 -0.6
2019-Dec-05 08:47 220 1 gusting 3 -0.6
2019-Dec-05 08:41 220 1 gusting 3 -0.6
2019-Dec-05 08:35 220 0 gusting 2 -0.6
2019-Dec-05 08:30 225 0 gusting 4 -0.6
2019-Dec-05 08:25 225 0 gusting 4 -0.6
2019-Dec-05 08:19 223 0 gusting 2 -0.6
2019-Dec-05 08:14 223 0 gusting 2 -0.6
2019-Dec-05 08:08 223 1 gusting 2 -0.6
2019-Dec-05 08:03 223 0 gusting 2 -0.6
2019-Dec-05 08:00 223 0 gusting 3 -1.1